Time;durP1;ratioP1;P1;durP2;ratioP2;P2;SDS_P1;SDS_P2;PMS_P1;PMS_P2;Temp;Humidity;BMP_temperature;BMP_pressure;BME280_temperature;BME280_humidity;BME280_pressure;Samples;Min_cycle;Max_cycle;Signal;HPM_P1;HPM_P2
2021/08/23 04:06:32;;;;;;;13.60;13.00;;;24.10;99.90;;;;;;2601736;47;20486;-58
2021/08/23 04:09:01;;;;;;;13.87;13.20;;;23.50;99.90;;;;;;2609037;54;20435;-59
2021/08/23 04:11:31;;;;;;;13.43;12.83;;;23.40;99.90;;;;;;2608675;47;20417;-58
2021/08/23 04:14:00;;;;;;;13.30;12.80;;;23.40;99.90;;;;;;2609916;54;20399;-58
2021/08/23 04:16:30;;;;;;;13.93;13.27;;;23.40;99.90;;;;;;2607598;54;20394;-57
2021/08/23 04:18:59;;;;;;;13.57;13.03;;;23.40;99.90;;;;;;2608201;54;20403;-58
2021/08/23 04:21:28;;;;;;;14.03;13.43;;;23.50;99.90;;;;;;2608148;54;20413;-58
2021/08/23 04:23:59;;;;;;;13.97;13.37;;;23.40;99.90;;;;;;2608392;54;20391;-58
2021/08/23 04:26:29;;;;;;;14.10;13.10;;;23.40;99.90;;;;;;2608269;54;20407;-58
2021/08/23 04:28:58;;;;;;;14.53;13.83;;;23.50;99.90;;;;;;2604736;54;20391;-57
2021/08/23 04:31:30;;;;;;;14.37;13.67;;;23.50;99.90;;;;;;2605208;54;20398;-57
2021/08/23 04:34:00;;;;;;;15.33;14.30;;;23.50;99.90;;;;;;2604242;54;20414;-57
2021/08/23 04:36:29;;;;;;;13.60;13.10;;;23.50;99.90;;;;;;2600554;54;20418;-57
2021/08/23 04:39:00;;;;;;;14.57;13.80;;;23.50;99.90;;;;;;2604061;54;20508;-58
2021/08/23 04:41:29;;;;;;;13.87;13.17;;;23.50;99.90;;;;;;2601396;54;20460;-58
2021/08/23 04:43:59;;;;;;;14.47;13.77;;;23.50;99.90;;;;;;2601683;39;20704;-58
2021/08/23 04:46:28;;;;;;;14.10;13.50;;;23.50;99.90;;;;;;2601226;54;20374;-58
2021/08/23 04:48:57;;;;;;;14.30;13.63;;;23.50;99.90;;;;;;2603543;54;20378;-58
2021/08/23 04:51:26;;;;;;;14.60;13.90;;;23.50;99.90;;;;;;2601083;54;20434;-55
2021/08/23 04:53:55;;;;;;;13.97;13.37;;;23.50;99.90;;;;;;2600497;54;20447;-57
2021/08/23 04:56:27;;;;;;;13.77;13.17;;;23.50;99.90;;;;;;2599467;54;20475;-58
2021/08/23 04:58:56;;;;;;;14.13;13.40;;;23.50;99.90;;;;;;2598800;54;20462;-58
2021/08/23 05:01:25;;;;;;;14.23;13.63;;;23.50;99.90;;;;;;2598219;54;20445;-58
2021/08/23 05:03:54;;;;;;;14.20;13.60;;;23.50;99.90;;;;;;2595336;54;21243;-57
2021/08/23 05:06:23;;;;;;;13.77;13.17;;;23.50;99.90;;;;;;2595721;54;20442;-58
2021/08/23 05:08:54;;;;;;;13.80;13.10;;;23.50;99.90;;;;;;2597044;54;20359;-58
2021/08/23 05:11:24;;;;;;;13.30;12.80;;;23.50;99.90;;;;;;2594755;54;20402;-57
2021/08/23 05:13:56;;;;;;;14.20;13.40;;;23.50;99.90;;;;;;2590586;54;20541;-57
2021/08/23 05:16:25;;;;;;;13.73;13.23;;;23.50;99.90;;;;;;2594884;54;20403;-57
2021/08/23 05:18:54;;;;;;;14.13;13.43;;;23.50;99.90;;;;;;2594478;31;20517;-58
2021/08/23 05:21:23;;;;;;;13.87;13.27;;;23.50;99.90;;;;;;2594025;54;20418;-58
2021/08/23 05:23:52;;;;;;;14.10;13.40;;;23.50;99.90;;;;;;2595195;39;21092;-58
2021/08/23 05:26:22;;;;;;;14.57;13.63;;;23.50;99.90;;;;;;2591947;54;20363;-58
2021/08/23 05:28:51;;;;;;;14.30;13.53;;;23.50;99.90;;;;;;2588842;51;20406;-58
2021/08/23 05:31:25;;;;;;;14.27;13.37;;;23.50;99.90;;;;;;2588207;54;20498;-58
2021/08/23 05:33:54;;;;;;;13.00;12.50;;;23.50;99.90;;;;;;2588175;54;20399;-57
2021/08/23 05:36:23;;;;;;;14.47;13.77;;;23.50;99.90;;;;;;2585778;31;20490;-57
2021/08/23 05:38:53;;;;;;;13.27;12.67;;;23.50;99.90;;;;;;2585329;54;20413;-58
2021/08/23 05:41:22;;;;;;;13.97;13.37;;;23.50;99.90;;;;;;2585288;39;21066;-58
2021/08/23 05:43:51;;;;;;;14.03;13.33;;;23.50;99.90;;;;;;2584032;54;20410;-58
2021/08/23 05:46:25;;;;;;;14.03;13.33;;;23.50;99.90;;;;;;2582485;54;20390;-59
2021/08/23 05:48:54;;;;;;;14.53;13.93;;;23.50;99.90;;;;;;2577435;39;20626;-55
2021/08/23 05:51:23;;;;;;;13.70;13.00;;;23.50;99.90;;;;;;2577210;54;20414;-56
2021/08/23 05:53:53;;;;;;;13.67;13.07;;;23.50;99.90;;;;;;2575493;54;20813;-58
2021/08/23 05:56:22;;;;;;;14.10;13.30;;;23.50;99.90;;;;;;2576366;39;20688;-56
2021/08/23 05:58:51;;;;;;;13.77;13.17;;;23.50;99.90;;;;;;2571247;54;20430;-57
2021/08/23 06:01:20;;;;;;;14.60;13.60;;;23.50;99.90;;;;;;2558981;47;20740;-57
2021/08/23 06:03:52;;;;;;;13.57;12.87;;;23.50;99.90;;;;;;2548838;39;20652;-58
2021/08/23 06:06:21;;;;;;;14.13;13.20;;;23.50;99.90;;;;;;2545381;39;21093;-56
2021/08/23 06:08:50;;;;;;;14.60;13.60;;;23.50;99.90;;;;;;2562696;54;21005;-58
2021/08/23 06:11:19;;;;;;;14.30;13.60;;;23.50;99.90;;;;;;2566759;39;20613;-57
2021/08/23 06:13:49;;;;;;;14.40;13.47;;;23.50;99.90;;;;;;2571639;54;20894;-57
2021/08/23 06:16:18;;;;;;;14.27;13.50;;;23.50;99.90;;;;;;2567145;54;20692;-57
2021/08/23 06:18:47;;;;;;;14.80;14.00;;;23.50;99.90;;;;;;2574539;39;21023;-57
2021/08/23 06:21:19;;;;;;;14.17;13.27;;;23.50;99.90;;;;;;2569885;54;21088;-56
2021/08/23 06:23:48;;;;;;;14.73;13.93;;;23.50;99.90;;;;;;2570458;54;20972;-56
2021/08/23 06:26:17;;;;;;;14.43;13.53;;;23.50;99.90;;;;;;2574177;54;20457;-55
2021/08/23 06:28:47;;;;;;;12.60;12.00;;;23.50;99.90;;;;;;2572008;54;20554;-58
2021/08/23 06:31:16;;;;;;;12.83;12.13;;;23.30;99.90;;;;;;2568756;54;20405;-57
2021/08/23 06:33:45;;;;;;;12.73;12.23;;;22.70;99.90;;;;;;2574179;54;20407;-55
2021/08/23 06:36:14;;;;;;;13.60;12.90;;;22.30;99.90;;;;;;2575121;54;20438;-56
2021/08/23 06:38:46;;;;;;;13.10;12.53;;;21.90;99.90;;;;;;2575697;54;20399;-56
2021/08/23 06:41:20;;;;;;;12.57;12.07;;;21.70;99.90;;;;;;2574361;54;20383;-58
2021/08/23 06:43:50;;;;;;;13.20;12.70;;;21.50;99.90;;;;;;2574063;54;20379;-54
2021/08/23 06:46:19;;;;;;;13.57;12.50;;;21.30;99.90;;;;;;2572783;54;20378;-56
2021/08/23 06:48:49;;;;;;;12.90;12.30;;;21.20;99.90;;;;;;2564561;54;20947;-55
2021/08/23 06:51:20;;;;;;;12.60;12.10;;;21.10;99.90;;;;;;2577666;54;20964;-57
2021/08/23 06:53:52;;;;;;;13.07;12.40;;;21.00;99.90;;;;;;2574264;54;20415;-56
2021/08/23 06:56:21;;;;;;;12.87;12.37;;;21.00;99.90;;;;;;2573426;54;20395;-56
2021/08/23 06:58:50;;;;;;;13.13;12.63;;;20.90;99.90;;;;;;2572923;54;20375;-57
2021/08/23 07:01:19;;;;;;;12.80;12.10;;;20.90;99.90;;;;;;2573341;54;20522;-57
2021/08/23 07:03:48;;;;;;;12.70;12.07;;;20.80;99.90;;;;;;2570044;54;21006;-56
2021/08/23 07:06:18;;;;;;;13.17;12.50;;;20.80;99.90;;;;;;2574588;54;20450;-57
2021/08/23 07:08:47;;;;;;;12.80;11.87;;;20.80;99.90;;;;;;2573712;39;20465;-57
2021/08/23 07:11:18;;;;;;;13.20;12.50;;;20.80;99.90;;;;;;2567886;54;20390;-57
2021/08/23 07:13:48;;;;;;;12.80;12.30;;;20.80;99.90;;;;;;2573126;54;20382;-57
2021/08/23 07:16:17;;;;;;;12.37;11.77;;;20.90;99.90;;;;;;2570030;47;20414;-57
2021/08/23 07:18:46;;;;;;;12.70;12.20;;;20.80;99.90;;;;;;2574231;54;20494;-56
2021/08/23 07:21:15;;;;;;;11.90;11.20;;;20.80;99.90;;;;;;2563858;54;20434;-56
2021/08/23 07:23:44;;;;;;;11.90;11.30;;;20.80;99.90;;;;;;2570507;54;21285;-56
2021/08/23 07:26:14;;;;;;;12.23;11.63;;;20.80;99.90;;;;;;2571973;54;20441;-56
2021/08/23 07:28:45;;;;;;;11.90;11.40;;;20.80;99.90;;;;;;2562089;54;20509;-57
2021/08/23 07:31:15;;;;;;;12.50;11.90;;;20.90;99.90;;;;;;2561163;54;20415;-57
2021/08/23 07:33:44;;;;;;;11.60;11.20;;;20.90;99.90;;;;;;2563277;54;20953;-57
2021/08/23 07:36:13;;;;;;;12.47;11.87;;;20.90;99.90;;;;;;2563748;54;20434;-56
2021/08/23 07:38:42;;;;;;;12.40;11.80;;;20.90;99.90;;;;;;2566804;54;21411;-57
2021/08/23 07:41:11;;;;;;;12.60;12.10;;;20.80;99.90;;;;;;2562816;54;20407;-57
2021/08/23 07:43:41;;;;;;;12.50;12.00;;;20.80;99.90;;;;;;2565353;54;20414;-56
2021/08/23 07:46:13;;;;;;;12.70;12.10;;;20.90;99.90;;;;;;2564751;54;20426;-57
2021/08/23 07:48:44;;;;;;;12.90;12.10;;;20.90;99.90;;;;;;2567745;54;20371;-57
2021/08/23 07:51:13;;;;;;;11.90;11.30;;;20.90;99.90;;;;;;2564445;54;20502;-58
2021/08/23 07:53:43;;;;;;;12.27;11.77;;;20.90;99.90;;;;;;2569769;39;20888;-56
2021/08/23 07:56:12;;;;;;;14.43;13.00;;;20.90;99.90;;;;;;2568200;54;20458;-57
2021/08/23 07:58:41;;;;;;;12.63;12.07;;;20.80;99.90;;;;;;2563720;54;20399;-56
2021/08/23 08:01:14;;;;;;;13.50;12.80;;;20.80;99.90;;;;;;2565796;54;20401;-57
2021/08/23 08:03:43;;;;;;;13.27;12.67;;;20.80;99.90;;;;;;2567461;54;21117;-56
2021/08/23 08:06:12;;;;;;;12.40;11.90;;;20.80;99.90;;;;;;2563385;54;20504;-55
2021/08/23 08:08:42;;;;;;;13.13;12.33;;;20.80;99.90;;;;;;2572544;54;20448;-56
2021/08/23 08:11:13;;;;;;;13.53;12.83;;;20.80;99.90;;;;;;2565144;54;20441;-56
2021/08/23 08:13:42;;;;;;;12.97;12.00;;;20.80;99.90;;;;;;2568490;54;20433;-57
2021/08/23 08:16:15;;;;;;;12.73;12.13;;;20.80;99.90;;;;;;2570006;54;20449;-56
2021/08/23 08:18:45;;;;;;;13.63;12.93;;;20.70;99.90;;;;;;2570405;54;20425;-56
2021/08/23 08:21:14;;;;;;;13.27;12.67;;;20.70;99.90;;;;;;2568763;54;20434;-57
2021/08/23 08:23:45;;;;;;;13.00;12.50;;;20.70;99.90;;;;;;2569555;54;20398;-56
2021/08/23 08:26:18;;;;;;;13.33;12.63;;;20.60;99.90;;;;;;2570431;54;20398;-58
2021/08/23 08:28:50;;;;;;;13.90;13.33;;;20.60;99.90;;;;;;2573701;54;20465;-57
2021/08/23 08:31:27;;;;;;;14.27;13.47;;;20.60;99.90;;;;;;2570387;54;20928;-56
2021/08/23 08:33:57;;;;;;;13.30;12.60;;;20.70;99.90;;;;;;2573468;39;20693;-58
2021/08/23 08:36:29;;;;;;;13.03;12.53;;;21.00;99.90;;;;;;2569120;54;20449;-58
2021/08/23 08:39:00;;;;;;;12.90;12.40;;;21.30;99.90;;;;;;2571464;54;20402;-58
2021/08/23 08:41:31;;;;;;;13.23;12.63;;;21.50;99.90;;;;;;2568113;39;20846;-57
2021/08/23 08:44:05;;;;;;;13.53;12.83;;;21.70;99.90;;;;;;2566164;54;20443;-58
2021/08/23 08:46:38;;;;;;;13.33;12.53;;;21.90;99.90;;;;;;2567906;54;20422;-58
2021/08/23 08:49:07;;;;;;;12.63;12.00;;;22.00;99.90;;;;;;2567014;54;20371;-59
2021/08/23 08:51:38;;;;;;;12.47;11.80;;;22.10;99.90;;;;;;2566783;54;20553;-59
2021/08/23 08:54:08;;;;;;;13.47;12.83;;;22.20;99.90;;;;;;2569684;54;20429;-58
2021/08/23 08:56:39;;;;;;;13.17;12.57;;;22.30;99.90;;;;;;2567143;54;20517;-57
2021/08/23 08:59:08;;;;;;;13.03;12.43;;;22.30;99.90;;;;;;2561341;54;21342;-58
2021/08/23 09:01:40;;;;;;;13.70;13.10;;;22.40;99.90;;;;;;2562220;51;20399;-58
2021/08/23 09:04:09;;;;;;;12.70;12.20;;;22.50;99.90;;;;;;2566110;54;20394;-58
2021/08/23 09:06:42;;;;;;;13.73;13.13;;;22.50;99.90;;;;;;2564152;54;20379;-58
2021/08/23 09:09:13;;;;;;;13.60;13.10;;;22.60;99.90;;;;;;2560291;54;20429;-58
2021/08/23 09:11:42;;;;;;;13.73;13.00;;;22.60;99.90;;;;;;2558519;54;20426;-58
2021/08/23 09:14:12;;;;;;;13.27;12.67;;;22.70;99.90;;;;;;2560289;54;20391;-58
2021/08/23 09:16:46;;;;;;;13.70;12.97;;;22.70;99.90;;;;;;2562145;39;20808;-57
2021/08/23 09:19:24;;;;;;;14.03;13.20;;;22.70;99.90;;;;;;2563422;47;20437;-58
2021/08/23 09:22:05;;;;;;;13.67;13.00;;;22.80;99.90;;;;;;2561339;54;20453;-57
2021/08/23 09:24:35;;;;;;;14.13;13.37;;;22.80;99.90;;;;;;2561896;39;21090;-58
2021/08/23 09:27:06;;;;;;;13.80;13.13;;;22.80;99.90;;;;;;2563759;54;20422;-59
2021/08/23 09:29:54;;;;;;;14.33;13.60;;;22.80;99.90;;;;;;2559238;54;20418;-58
2021/08/23 09:32:27;;;;;;;13.40;12.80;;;22.80;99.90;;;;;;2566157;54;20418;-59
2021/08/23 09:34:57;;;;;;;13.10;12.60;;;22.90;99.90;;;;;;2567940;54;20433;-58
2021/08/23 09:37:28;;;;;;;14.33;13.63;;;22.90;99.90;;;;;;2569255;54;20432;-58
2021/08/23 09:39:58;;;;;;;13.17;12.57;;;22.90;99.90;;;;;;2570198;54;20406;-58
2021/08/23 09:42:28;;;;;;;14.60;13.70;;;22.90;99.90;;;;;;2567858;54;20418;-59
2021/08/23 09:44:57;;;;;;;13.50;12.80;;;22.90;99.90;;;;;;2569731;54;20399;-58
2021/08/23 09:47:33;;;;;;;13.87;13.13;;;22.90;99.90;;;;;;2568619;54;20390;-58
2021/08/23 09:50:02;;;;;;;13.07;12.47;;;22.90;99.90;;;;;;2564097;31;20996;-53
2021/08/23 09:52:34;;;;;;;13.77;13.10;;;22.90;99.90;;;;;;2570490;39;20827;-55
2021/08/23 09:55:06;;;;;;;13.27;12.70;;;23.00;99.90;;;;;;2564106;54;20708;-57
2021/08/23 09:57:37;;;;;;;13.90;13.20;;;23.00;99.90;;;;;;2566645;39;20669;-56
2021/08/23 10:00:11;;;;;;;13.30;12.80;;;23.00;99.90;;;;;;2567019;54;20414;-57
2021/08/23 10:02:47;;;;;;;12.90;12.40;;;23.00;99.90;;;;;;2570653;54;20434;-59
2021/08/23 10:05:18;;;;;;;13.57;12.97;;;23.00;99.90;;;;;;2574609;54;20407;-59
2021/08/23 10:07:49;;;;;;;12.93;12.30;;;23.00;99.90;;;;;;2577578;54;20410;-57
2021/08/23 10:10:20;;;;;;;12.30;11.80;;;23.00;99.90;;;;;;2573912;54;20521;-56
2021/08/23 10:12:50;;;;;;;12.63;11.93;;;22.80;99.90;;;;;;2571565;54;20490;-56
2021/08/23 10:15:19;;;;;;;13.77;12.70;;;22.70;99.90;;;;;;2572384;54;20399;-56
2021/08/23 10:17:52;;;;;;;12.23;11.73;;;22.60;99.90;;;;;;2571432;54;20417;-57
2021/08/23 10:20:21;;;;;;;12.77;12.17;;;22.40;99.90;;;;;;2569703;54;20410;-57
2021/08/23 10:22:50;;;;;;;14.17;13.17;;;22.30;99.90;;;;;;2571961;54;20410;-56
2021/08/23 10:25:20;;;;;;;13.60;12.97;;;22.30;99.90;;;;;;2571506;39;20845;-56
2021/08/23 10:27:50;;;;;;;13.07;12.47;;;22.20;99.90;;;;;;2573483;54;20398;-58
2021/08/23 10:30:24;;;;;;;12.60;12.00;;;22.20;99.90;;;;;;2574690;54;20445;-58
2021/08/23 10:32:56;;;;;;;12.77;12.17;;;22.10;99.90;;;;;;2573208;54;20419;-55
2021/08/23 10:35:28;;;;;;;12.47;11.97;;;22.10;99.90;;;;;;2571917;54;20427;-57
2021/08/23 10:37:58;;;;;;;12.73;12.23;;;22.10;99.90;;;;;;2573140;54;20449;-57
2021/08/23 10:40:43;;;;;;;12.30;11.83;;;22.10;99.90;;;;;;2571095;54;20476;-57
2021/08/23 10:43:17;;;;;;;13.33;12.30;;;22.10;99.90;;;;;;2574207;54;20488;-57
2021/08/23 10:45:47;;;;;;;13.63;12.93;;;22.20;99.90;;;;;;2568521;54;20402;-57
2021/08/23 10:48:21;;;;;;;13.17;12.50;;;22.30;99.90;;;;;;2569821;54;20418;-57
2021/08/23 10:51:01;;;;;;;13.00;12.50;;;22.30;99.90;;;;;;2570309;54;20399;-57
2021/08/23 10:53:38;;;;;;;13.10;12.50;;;22.20;99.90;;;;;;2570632;54;20444;-56
2021/08/23 10:56:15;;;;;;;12.80;12.30;;;22.30;99.90;;;;;;2567942;54;20457;-58
2021/08/23 10:58:44;;;;;;;13.03;12.33;;;22.40;99.90;;;;;;2562624;54;20730;-58
2021/08/23 11:01:20;;;;;;;12.70;12.10;;;22.40;99.90;;;;;;2561726;54;20437;-57
2021/08/23 11:04:02;;;;;;;13.50;12.60;;;22.50;99.90;;;;;;2569136;54;21437;-56
2021/08/23 11:06:32;;;;;;;13.43;12.73;;;22.60;99.90;;;;;;2572726;54;20422;-58
2021/08/23 11:09:10;;;;;;;13.70;13.03;;;22.70;99.90;;;;;;2571555;39;20800;-58
2021/08/23 11:11:40;;;;;;;13.30;12.70;;;22.70;99.90;;;;;;2575894;54;20433;-57
2021/08/23 11:14:19;;;;;;;15.03;13.50;;;22.80;99.90;;;;;;2573028;54;20446;-58
2021/08/23 11:16:54;;;;;;;24.00;15.60;;;22.80;99.90;;;;;;2570236;54;20415;-57
2021/08/23 11:19:27;;;;;;;17.03;15.33;;;22.90;99.90;;;;;;2570708;54;20779;-58
2021/08/23 11:21:59;;;;;;;17.03;15.43;;;22.90;99.90;;;;;;2571692;54;20426;-57
2021/08/23 11:24:30;;;;;;;16.80;15.40;;;22.90;99.90;;;;;;2569403;54;20498;-57
2021/08/23 11:27:00;;;;;;;17.97;16.10;;;22.90;99.90;;;;;;2570534;54;21390;-57
2021/08/23 11:29:30;;;;;;;26.13;18.63;;;23.00;99.90;;;;;;2569581;39;20750;-56
2021/08/23 11:31:59;;;;;;;20.53;18.37;;;23.00;99.90;;;;;;2571475;54;20431;-57
2021/08/23 11:34:31;;;;;;;26.67;16.90;;;23.00;99.90;;;;;;2572352;39;21102;-58
2021/08/23 11:37:04;;;;;;;21.83;18.73;;;23.10;99.90;;;;;;2574299;54;20399;-58
2021/08/23 11:39:34;;;;;;;21.10;17.47;;;23.10;99.90;;;;;;2575308;54;20402;-59
2021/08/23 11:42:05;;;;;;;19.97;18.07;;;23.10;99.90;;;;;;2580330;54;20395;-58
2021/08/23 11:44:37;;;;;;;33.63;20.57;;;23.10;99.90;;;;;;2571921;54;20407;-58
2021/08/23 11:47:08;;;;;;;19.77;17.40;;;23.10;99.90;;;;;;2567814;54;21450;-58
2021/08/23 11:49:40;;;;;;;27.70;19.10;;;23.10;99.90;;;;;;2576822;54;20414;-57
2021/08/23 11:52:14;;;;;;;27.03;19.63;;;23.10;99.90;;;;;;2576988;54;20391;-58
2021/08/23 11:54:44;;;;;;;23.27;18.27;;;23.10;99.90;;;;;;2573206;54;20734;-58
2021/08/23 11:57:13;;;;;;;24.17;16.63;;;23.20;99.90;;;;;;2575371;54;20933;-58
2021/08/23 11:59:42;;;;;;;20.40;17.90;;;23.20;99.90;;;;;;2570204;54;20887;-56
2021/08/23 12:02:15;;;;;;;22.67;18.63;;;23.20;99.90;;;;;;2572591;54;20422;-57
2021/08/23 12:04:47;;;;;;;23.57;17.40;;;23.20;99.90;;;;;;2575834;47;20433;-59
2021/08/23 12:07:17;;;;;;;20.40;18.30;;;23.20;99.90;;;;;;2572402;54;20399;-58
2021/08/23 12:09:46;;;;;;;18.60;16.87;;;23.20;99.90;;;;;;2574096;54;20423;-58
2021/08/23 12:12:24;;;;;;;18.73;17.13;;;23.20;99.90;;;;;;2572653;54;20419;-58
2021/08/23 12:15:00;;;;;;;17.73;16.33;;;23.20;99.90;;;;;;2578999;47;21051;-60
2021/08/23 12:17:33;;;;;;;16.43;13.47;;;23.20;99.90;;;;;;2577546;54;20404;-58
2021/08/23 12:20:10;;;;;;;19.33;17.17;;;23.20;99.90;;;;;;2569912;54;20379;-59
2021/08/23 12:22:39;;;;;;;18.40;16.53;;;23.20;99.90;;;;;;2582755;54;20391;-60
2021/08/23 12:25:09;;;;;;;17.60;15.90;;;23.20;99.90;;;;;;2577001;54;20395;-61
2021/08/23 12:27:38;;;;;;;18.10;16.53;;;23.20;99.90;;;;;;2582024;54;20418;-62
2021/08/23 12:30:08;;;;;;;16.10;14.80;;;23.20;99.90;;;;;;2577656;54;20367;-62
2021/08/23 12:32:37;;;;;;;17.37;15.60;;;23.30;99.90;;;;;;2576869;54;20411;-61
2021/08/23 12:35:14;;;;;;;15.87;14.70;;;23.30;99.90;;;;;;2568488;54;20583;-61
2021/08/23 12:37:43;;;;;;;16.87;15.47;;;23.30;99.90;;;;;;2569028;54;20399;-61
2021/08/23 12:40:14;;;;;;;15.73;14.73;;;23.30;99.90;;;;;;2572468;54;20432;-62
2021/08/23 12:42:46;;;;;;;17.20;15.53;;;23.30;99.90;;;;;;2568747;39;20450;-61
2021/08/23 12:45:15;;;;;;;15.93;14.80;;;23.30;99.90;;;;;;2564132;54;20376;-62
2021/08/23 12:47:46;;;;;;;16.07;14.87;;;23.30;99.90;;;;;;2575224;54;20502;-62
2021/08/23 12:50:21;;;;;;;15.77;14.67;;;23.30;99.90;;;;;;2577841;54;20521;-62
2021/08/23 12:52:50;;;;;;;16.50;15.30;;;23.30;99.90;;;;;;2572295;54;20934;-60
2021/08/23 12:55:19;;;;;;;16.40;15.50;;;23.30;99.90;;;;;;2561726;54;20442;-62
2021/08/23 12:57:48;;;;;;;16.97;15.53;;;23.30;99.90;;;;;;2572003;54;20537;-62
2021/08/23 13:00:18;;;;;;;16.40;15.10;;;23.30;99.90;;;;;;2563265;54;20422;-62
2021/08/23 13:02:47;;;;;;;15.90;15.10;;;23.30;99.90;;;;;;2568658;54;20438;-62
2021/08/23 13:05:16;;;;;;;16.83;15.73;;;23.30;99.90;;;;;;2568160;54;20403;-61
2021/08/23 13:07:48;;;;;;;16.53;15.33;;;23.30;99.90;;;;;;2569689;54;20386;-61
2021/08/23 13:10:17;;;;;;;16.67;15.57;;;23.30;99.90;;;;;;2570963;39;20764;-61
2021/08/23 13:12:46;;;;;;;15.70;14.93;;;23.30;99.90;;;;;;2573754;39;20705;-62
2021/08/23 13:15:15;;;;;;;16.00;15.20;;;23.30;99.90;;;;;;2577538;39;20789;-62
2021/08/23 13:17:45;;;;;;;16.00;15.10;;;23.30;99.90;;;;;;2576279;54;20470;-63
2021/08/23 13:20:15;;;;;;;16.93;16.03;;;23.30;99.90;;;;;;2578507;54;20394;-61
2021/08/23 13:22:47;;;;;;;17.77;16.67;;;23.30;99.90;;;;;;2581690;54;20386;-62
2021/08/23 13:25:16;;;;;;;16.37;15.40;;;23.30;99.90;;;;;;2579142;39;20737;-61
2021/08/23 13:27:45;;;;;;;16.47;15.57;;;23.30;99.90;;;;;;2576862;54;20418;-62
2021/08/23 13:30:16;;;;;;;16.27;15.30;;;23.30;99.90;;;;;;2575767;39;21142;-61
2021/08/23 13:32:45;;;;;;;15.97;15.13;;;23.30;99.90;;;;;;2574727;54;20520;-61
2021/08/23 13:35:15;;;;;;;14.83;14.13;;;23.30;99.90;;;;;;2576026;54;20379;-61
2021/08/23 13:37:46;;;;;;;16.60;15.47;;;23.30;99.90;;;;;;2579040;54;20445;-61
2021/08/23 13:40:15;;;;;;;15.70;15.00;;;23.30;99.90;;;;;;2576349;54;21297;-61
2021/08/23 13:42:44;;;;;;;17.13;16.13;;;23.30;99.90;;;;;;2580479;54;20466;-62
2021/08/23 13:45:13;;;;;;;16.03;15.20;;;23.30;99.90;;;;;;2575255;54;20375;-61
2021/08/23 13:47:43;;;;;;;15.33;14.53;;;23.30;99.90;;;;;;2577631;54;20445;-62
2021/08/23 13:50:12;;;;;;;16.03;15.13;;;23.30;99.90;;;;;;2578931;54;20883;-62
2021/08/23 13:52:41;;;;;;;16.47;15.67;;;23.30;99.90;;;;;;2574651;47;20442;-61
2021/08/23 13:55:13;;;;;;;15.73;14.87;;;23.30;99.90;;;;;;2574276;54;20560;-61
2021/08/23 13:57:42;;;;;;;15.90;15.10;;;23.30;99.90;;;;;;2570703;54;20437;-61
2021/08/23 14:00:13;;;;;;;16.27;15.53;;;23.30;99.90;;;;;;2578454;39;20822;-61
2021/08/23 14:02:43;;;;;;;16.80;15.60;;;23.30;99.90;;;;;;2571734;39;20781;-61
2021/08/23 14:05:12;;;;;;;17.53;16.60;;;23.30;99.90;;;;;;2574947;54;20900;-62
2021/08/23 14:07:41;;;;;;;17.13;16.10;;;23.30;99.90;;;;;;2582521;51;20391;-59
2021/08/23 14:10:15;;;;;;;17.00;15.90;;;23.30;99.90;;;;;;2579221;54;20450;-60
2021/08/23 14:12:45;;;;;;;16.90;15.90;;;23.40;99.90;;;;;;2573485;54;20951;-60
2021/08/23 14:15:15;;;;;;;16.10;15.30;;;23.40;99.90;;;;;;2577339;54;20410;-60
2021/08/23 14:17:45;;;;;;;15.67;14.77;;;23.30;99.90;;;;;;2575362;54;20422;-59
2021/08/23 14:20:16;;;;;;;15.07;14.43;;;23.40;99.90;;;;;;2578511;54;20387;-59
2021/08/23 14:22:45;;;;;;;14.70;13.90;;;23.40;99.90;;;;;;2576837;39;20770;-60
2021/08/23 14:25:17;;;;;;;15.93;15.00;;;23.40;99.90;;;;;;2578006;31;20915;-60
2021/08/23 14:27:47;;;;;;;15.70;14.73;;;23.40;99.90;;;;;;2579899;39;21145;-60
2021/08/23 14:30:16;;;;;;;15.37;14.37;;;23.40;99.90;;;;;;2580341;54;20429;-60
2021/08/23 14:32:45;;;;;;;15.13;14.23;;;23.40;99.90;;;;;;2576978;54;20407;-60
2021/08/23 14:35:15;;;;;;;16.63;15.53;;;23.40;99.90;;;;;;2578779;54;20448;-60
2021/08/23 14:37:44;;;;;;;16.37;15.17;;;23.40;99.90;;;;;;2574765;54;20437;-60
2021/08/23 14:40:17;;;;;;;14.37;13.67;;;23.40;99.90;;;;;;2570688;54;20441;-60
2021/08/23 14:42:46;;;;;;;16.30;15.10;;;23.40;99.90;;;;;;2579178;54;20387;-60
2021/08/23 14:45:15;;;;;;;15.33;14.07;;;23.40;99.90;;;;;;2583760;47;20525;-59
2021/08/23 14:47:44;;;;;;;15.30;14.50;;;23.40;99.90;;;;;;2583783;54;20403;-58
2021/08/23 14:50:13;;;;;;;16.27;15.37;;;23.40;99.90;;;;;;2585175;51;20375;-58
2021/08/23 14:52:43;;;;;;;14.63;13.90;;;23.40;99.90;;;;;;2589895;47;20398;-57
2021/08/23 14:55:13;;;;;;;16.07;15.00;;;23.40;99.90;;;;;;2587365;54;21256;-58
2021/08/23 14:57:45;;;;;;;15.37;14.47;;;23.40;99.90;;;;;;2588910;39;20776;-58
2021/08/23 15:00:15;;;;;;;14.47;13.60;;;23.40;99.90;;;;;;2588354;54;20391;-58
2021/08/23 15:02:48;;;;;;;16.10;14.90;;;23.40;99.90;;;;;;2590907;39;20665;-58
2021/08/23 15:05:18;;;;;;;14.03;13.23;;;23.40;99.90;;;;;;2592850;39;21095;-58
2021/08/23 15:07:47;;;;;;;15.43;14.57;;;23.40;99.90;;;;;;2590172;54;20434;-59
2021/08/23 15:10:17;;;;;;;14.67;13.77;;;23.40;99.90;;;;;;2590176;39;20824;-59
2021/08/23 15:12:50;;;;;;;15.80;14.70;;;23.40;99.90;;;;;;2588582;51;20383;-58
2021/08/23 15:15:21;;;;;;;14.20;13.50;;;23.40;99.90;;;;;;2594401;39;21034;-58
2021/08/23 15:17:53;;;;;;;14.50;13.60;;;23.40;99.90;;;;;;2590183;54;20371;-58
2021/08/23 15:20:23;;;;;;;15.93;14.73;;;23.40;99.90;;;;;;2590215;54;20414;-59
2021/08/23 15:22:53;;;;;;;15.03;13.93;;;23.40;99.90;;;;;;2590115;54;20395;-58
2021/08/23 15:25:23;;;;;;;14.23;13.20;;;23.40;99.90;;;;;;2593861;54;20446;-58
2021/08/23 15:27:54;;;;;;;15.73;14.63;;;23.40;99.90;;;;;;2590612;54;20798;-59
2021/08/23 15:30:23;;;;;;;15.00;14.20;;;23.40;99.90;;;;;;2590108;54;20378;-56
2021/08/23 15:32:52;;;;;;;15.20;14.20;;;23.40;99.90;;;;;;2592828;54;20803;-58
2021/08/23 15:35:22;;;;;;;15.53;14.63;;;23.40;99.90;;;;;;2592012;54;20955;-59
2021/08/23 15:37:51;;;;;;;16.37;15.07;;;23.30;99.90;;;;;;2594985;39;20771;-58
2021/08/23 15:40:20;;;;;;;15.07;14.03;;;23.40;99.90;;;;;;2597287;39;20792;-58
2021/08/23 15:42:49;;;;;;;14.90;13.90;;;23.40;99.90;;;;;;2594236;54;20363;-59
2021/08/23 15:45:20;;;;;;;15.13;14.33;;;23.40;99.90;;;;;;2595399;54;20411;-58
2021/08/23 15:47:50;;;;;;;15.63;14.70;;;23.40;99.90;;;;;;2595567;54;20406;-59
2021/08/23 15:50:19;;;;;;;16.30;15.30;;;23.40;99.90;;;;;;2592564;39;20758;-59
2021/08/23 15:52:48;;;;;;;17.50;16.20;;;23.40;99.90;;;;;;2595732;39;20790;-59
2021/08/23 15:55:17;;;;;;;15.00;14.30;;;23.40;99.90;;;;;;2595250;54;20457;-58
2021/08/23 15:57:46;;;;;;;15.27;14.57;;;23.40;99.90;;;;;;2595154;54;20995;-59
2021/08/23 16:00:17;;;;;;;15.43;14.63;;;23.40;99.90;;;;;;2595073;54;20371;-57
2021/08/23 16:02:49;;;;;;;15.33;14.60;;;23.40;99.90;;;;;;2595636;54;20371;-58
2021/08/23 16:05:18;;;;;;;16.07;15.17;;;23.40;99.90;;;;;;2596969;54;20395;-58
2021/08/23 16:07:48;;;;;;;15.77;14.77;;;23.40;99.90;;;;;;2599695;54;20391;-58
2021/08/23 16:10:18;;;;;;;16.27;15.10;;;23.40;99.90;;;;;;2595936;54;20458;-58
2021/08/23 16:12:48;;;;;;;15.47;14.77;;;23.40;99.90;;;;;;2594599;54;21228;-57
2021/08/23 16:15:17;;;;;;;16.20;15.30;;;23.40;99.90;;;;;;2593053;54;20538;-59
2021/08/23 16:17:49;;;;;;;16.17;15.37;;;23.40;99.90;;;;;;2596868;54;20418;-58
2021/08/23 16:20:18;;;;;;;16.50;15.60;;;23.40;99.90;;;;;;2594541;54;20395;-58
2021/08/23 16:22:47;;;;;;;15.70;14.90;;;23.40;99.90;;;;;;2597794;54;21444;-59
2021/08/23 16:25:17;;;;;;;16.13;15.23;;;23.40;99.90;;;;;;2595562;54;20545;-55
2021/08/23 16:27:46;;;;;;;16.07;14.63;;;23.40;99.90;;;;;;2592621;39;20673;-57
2021/08/23 16:30:15;;;;;;;16.30;15.50;;;23.40;99.90;;;;;;2595666;54;21227;-58
2021/08/23 16:32:44;;;;;;;15.53;14.60;;;23.40;99.90;;;;;;2598239;54;20399;-58
2021/08/23 16:35:16;;;;;;;14.00;13.40;;;23.40;99.90;;;;;;2597544;54;20399;-59
2021/08/23 16:37:45;;;;;;;14.53;13.83;;;23.20;99.90;;;;;;2596671;46;20409;-58
2021/08/23 16:40:15;;;;;;;14.57;13.87;;;23.00;99.90;;;;;;2598278;39;20819;-58
2021/08/23 16:42:45;;;;;;;14.00;13.40;;;22.90;99.90;;;;;;2595614;54;20510;-58
2021/08/23 16:45:15;;;;;;;15.00;14.30;;;22.80;99.90;;;;;;2596382;50;20395;-61
2021/08/23 16:47:47;;;;;;;14.60;13.80;;;22.70;99.90;;;;;;2597464;54;20387;-61
2021/08/23 16:50:20;;;;;;;14.90;14.30;;;22.70;99.90;;;;;;2596783;39;20751;-61